Kezdőlap
METAR-TAF:

METAR-TAF

Repülőterek :

Comanche National Grassland

Springfield, Colorado, Amerikai Egyesült Államok

földrajzi szélesség: 37-17N, földrajzi hosszúság: 102-37W, magasság: 1335 m

Jelenlegi meteorológiai megfigyelések

A jelentés 18 perccel ezelõtt készült, 22:56 UTC
Délkeleti szél 22 kt széllökések: 32 kt
Hőmérséklet 17°C
Páratartalom 29%
Légköri nyomás 1011 hPa

METAR: KSPD 042256Z AUTO 14022G32KT 17/M01 A2984 RMK AO1 PK WND 13034/2208 SLP082 T01721011

Idő: 17:14 (23:14 UTC)


TAF: hiányzik

Meteorológiai megfigyelések és előrejelzések több, mint 4000 repülőtéren (METAR és TAF jelentéseket).

A térképen piros és sárga pontok jelzik az elérhető meteorológiai állomásokat.

Mozgassa az egeret a pont fölött, hogy megjelenjen az állomás neve.

Azután kattintson az időjárási megfigyelések és előrejelzések megtekintéséhez.

A térkép megváltoztatása: kattintson a fekete keresztel jelölt zöld gombra ráközelítéshez, a vonallal jelölt zöld gombra távolításhoz, vagy a zöld nyilakra a szomszédos térképek eléréséhez.


METAR-TAF: